createdAt,value
2023-03-06T00:00:26.981Z,28.20
2023-03-06T00:02:59.104Z,29.03
2023-03-06T00:05:26.830Z,27.87
2023-03-06T00:07:56.260Z,25.50
2023-03-06T00:10:29.412Z,28.13
2023-03-06T00:12:58.911Z,29.63
2023-03-06T00:15:29.185Z,29.03
2023-03-06T00:17:57.698Z,30.60
2023-03-06T00:20:25.903Z,24.77
2023-03-06T00:22:53.320Z,26.63
2023-03-06T00:25:23.594Z,29.47
2023-03-06T00:27:55.914Z,28.30
2023-03-06T00:30:24.586Z,30.07
2023-03-06T00:32:52.965Z,28.90
2023-03-06T00:35:25.209Z,27.83
2023-03-06T00:37:52.436Z,29.27
2023-03-06T00:40:21.216Z,30.17
2023-03-06T00:42:53.064Z,31.07
2023-03-06T00:45:20.290Z,31.27
2023-03-06T00:47:47.492Z,28.27
2023-03-06T00:50:14.741Z,32.27
2023-03-06T00:52:42.188Z,30.53
2023-03-06T00:55:13.036Z,33.23
2023-03-06T00:57:44.694Z,32.17
2023-03-06T01:00:13.320Z,29.43
2023-03-06T01:02:40.808Z,31.47
2023-03-06T01:05:09.040Z,27.60
2023-03-06T01:07:37.045Z,30.87
2023-03-06T01:10:05.947Z,31.07
2023-03-06T01:12:33.008Z,30.53
2023-03-06T01:15:00.254Z,30.40
2023-03-06T01:17:29.871Z,27.73
2023-03-06T01:19:59.480Z,31.47
2023-03-06T01:22:26.660Z,34.07
2023-03-06T01:24:53.747Z,33.17
2023-03-06T01:27:23.354Z,31.00
2023-03-06T01:29:52.765Z,31.83
2023-03-06T01:32:24.529Z,32.13
2023-03-06T01:34:51.927Z,33.40
2023-03-06T01:37:19.186Z,28.97
2023-03-06T01:39:46.300Z,33.80
2023-03-06T01:42:18.269Z,31.30
2023-03-06T01:45:07.436Z,30.63
2023-03-06T01:47:36.853Z,30.20
2023-03-06T01:50:10.617Z,31.53
2023-03-06T01:52:50.991Z,30.43
2023-03-06T01:55:21.638Z,29.43
2023-03-06T01:57:55.398Z,31.57
2023-03-06T02:00:27.297Z,32.17
2023-03-06T02:02:58.549Z,31.53
2023-03-06T02:05:28.218Z,31.80
2023-03-06T02:07:56.056Z,31.50
2023-03-06T02:10:23.326Z,28.77
2023-03-06T02:12:57.475Z,34.63
2023-03-06T02:15:30.665Z,33.43
2023-03-06T02:18:03.080Z,30.57
2023-03-06T02:21:03.443Z,31.10
2023-03-06T02:24:08.139Z,33.73
2023-03-06T02:26:37.580Z,35.67
2023-03-06T02:29:08.895Z,32.13
2023-03-06T02:31:41.296Z,34.40
2023-03-06T02:34:28.301Z,32.83
2023-03-06T02:37:02.751Z,33.33
2023-03-06T02:39:35.210Z,33.30
2023-03-06T02:42:02.473Z,33.03
2023-03-06T02:44:30.204Z,30.63
2023-03-06T02:46:57.372Z,33.37
2023-03-06T02:49:26.395Z,33.77
2023-03-06T02:52:00.952Z,31.00
2023-03-06T02:54:28.180Z,30.07
2023-03-06T02:56:57.827Z,30.33
2023-03-06T02:59:27.530Z,32.43
2023-03-06T03:01:54.716Z,33.10
2023-03-06T03:04:26.357Z,33.20
2023-03-06T03:06:58.728Z,33.73
2023-03-06T03:09:28.568Z,34.70
2023-03-06T03:11:55.669Z,32.47
2023-03-06T03:14:25.209Z,33.63
2023-03-06T03:16:55.225Z,33.63
2023-03-06T03:19:26.984Z,36.47
2023-03-06T03:21:54.113Z,33.57
2023-03-06T03:24:21.355Z,31.50
2023-03-06T03:26:50.834Z,34.30
2023-03-06T03:29:18.499Z,34.67
2023-03-06T03:31:48.037Z,33.87
2023-03-06T03:34:15.508Z,33.13
2023-03-06T03:36:45.838Z,34.00
2023-03-06T03:39:13.180Z,37.73
2023-03-06T03:41:40.585Z,32.93
2023-03-06T03:44:12.387Z,34.30
2023-03-06T03:46:39.623Z,34.27
2023-03-06T03:49:09.291Z,32.80
2023-03-06T03:51:38.901Z,36.73
2023-03-06T03:54:10.766Z,34.87
2023-03-06T03:56:42.692Z,36.23
2023-03-06T03:59:12.460Z,35.23
2023-03-06T04:01:42.074Z,33.77
2023-03-06T04:04:13.776Z,36.87
2023-03-06T04:06:40.972Z,36.03
2023-03-06T04:09:08.106Z,37.27
2023-03-06T04:11:35.276Z,36.90
2023-03-06T04:14:03.360Z,37.87
2023-03-06T04:16:31.160Z,37.73
2023-03-06T04:19:00.516Z,36.80
2023-03-06T04:21:29.561Z,37.00
2023-03-06T04:23:58.749Z,39.17
2023-03-06T04:26:28.259Z,36.80
2023-03-06T04:28:58.527Z,36.07
2023-03-06T04:31:25.716Z,42.30
2023-03-06T04:33:57.375Z,37.87
2023-03-06T04:36:33.156Z,37.63
2023-03-06T04:39:05.861Z,37.57
2023-03-06T04:41:33.075Z,41.50
2023-03-06T04:44:00.201Z,37.87
2023-03-06T04:46:29.829Z,34.97
2023-03-06T04:48:59.092Z,35.23
2023-03-06T04:51:28.417Z,37.03
2023-03-06T04:53:55.483Z,40.77
2023-03-06T04:56:24.644Z,40.80
2023-03-06T04:58:54.279Z,38.97
2023-03-06T05:01:21.563Z,38.40
2023-03-06T05:03:49.768Z,38.97
2023-03-06T05:06:21.129Z,40.83
2023-03-06T05:08:48.282Z,40.40
2023-03-06T05:11:17.559Z,41.80
2023-03-06T05:13:44.708Z,42.57
2023-03-06T05:16:14.448Z,40.07
2023-03-06T05:18:43.655Z,44.40
2023-03-06T05:21:15.503Z,41.10
2023-03-06T05:23:42.707Z,44.13
2023-03-06T05:26:13.139Z,39.03
2023-03-06T05:28:41.120Z,38.73
2023-03-06T05:31:08.441Z,39.00
2023-03-06T05:33:39.038Z,39.97
2023-03-06T05:36:10.409Z,41.57
2023-03-06T05:38:39.897Z,43.13
2023-03-06T05:41:07.030Z,44.23
2023-03-06T05:43:34.139Z,39.57
2023-03-06T05:46:06.045Z,39.87
2023-03-06T05:48:34.899Z,38.87
2023-03-06T05:51:03.141Z,41.83
2023-03-06T05:53:33.223Z,43.30
2023-03-06T05:56:06.213Z,40.10
2023-03-06T05:58:34.231Z,39.10
2023-03-06T06:01:09.437Z,40.93
2023-03-06T06:03:38.890Z,38.40
2023-03-06T06:06:10.504Z,41.00
2023-03-06T06:08:43.150Z,38.67
2023-03-06T06:11:13.671Z,39.53
2023-03-06T06:13:42.895Z,38.13
2023-03-06T06:16:16.899Z,41.93
2023-03-06T06:18:46.600Z,37.90
2023-03-06T06:21:14.778Z,40.33
2023-03-06T06:23:42.190Z,44.87
2023-03-06T06:26:09.948Z,40.50
2023-03-06T06:28:37.438Z,37.47
2023-03-06T06:31:13.348Z,41.30
2023-03-06T06:33:41.390Z,39.97
2023-03-06T06:36:18.779Z,43.73
2023-03-06T06:38:52.105Z,41.37
2023-03-06T06:41:51.023Z,43.10
2023-03-06T06:44:08.763Z,40.47
2023-03-06T06:49:27.933Z,36.40
2023-03-06T06:51:57.766Z,39.13
2023-03-06T06:54:25.165Z,41.20
2023-03-06T06:56:52.486Z,38.17
2023-03-06T06:59:23.798Z,39.47
2023-03-06T07:01:54.070Z,40.07
2023-03-06T07:04:21.325Z,39.87
2023-03-06T07:06:48.656Z,39.70
2023-03-06T07:09:20.508Z,42.00
2023-03-06T07:11:47.749Z,42.33
2023-03-06T07:14:14.917Z,38.03
2023-03-06T07:16:42.119Z,43.30
2023-03-06T07:19:09.293Z,38.23
2023-03-06T07:21:36.451Z,42.03
2023-03-06T07:24:06.209Z,37.50
2023-03-06T07:26:40.616Z,41.47
2023-03-06T07:29:07.698Z,39.73
2023-03-06T07:31:37.094Z,46.13
2023-03-06T07:34:06.802Z,54.27
2023-03-06T07:36:34.641Z,42.70
2023-03-06T07:39:01.951Z,40.63
2023-03-06T07:41:31.265Z,44.27
2023-03-06T07:43:58.414Z,39.77
2023-03-06T07:46:28.428Z,47.27
2023-03-06T07:48:58.762Z,56.27
2023-03-06T07:51:25.917Z,60.37
2023-03-06T07:53:55.566Z,52.77
2023-03-06T07:56:25.194Z,52.40
2023-03-06T07:58:52.458Z,64.97
2023-03-06T08:01:23.445Z,47.57
2023-03-06T08:03:53.499Z,46.53
2023-03-06T08:06:23.805Z,45.33
2023-03-06T08:08:54.674Z,46.07
2023-03-06T08:11:29.974Z,45.57
2023-03-06T08:13:58.250Z,44.57
2023-03-06T08:16:31.070Z,44.87
2023-03-06T08:18:58.775Z,40.73
2023-03-06T08:21:31.093Z,52.03
2023-03-06T08:24:07.438Z,42.27
2023-03-06T08:26:37.093Z,51.83
2023-03-06T08:29:08.962Z,48.53
2023-03-06T08:31:38.956Z,49.83
2023-03-06T08:34:09.232Z,54.83
2023-03-06T08:36:40.482Z,43.33
2023-03-06T08:39:08.404Z,49.27
2023-03-06T08:41:36.513Z,56.60
2023-03-06T08:44:09.071Z,43.40
2023-03-06T08:46:36.563Z,53.53
2023-03-06T08:49:03.836Z,41.65
2023-03-06T08:51:33.834Z,41.93
2023-03-06T08:54:06.183Z,42.47
2023-03-06T08:56:34.428Z,42.63
2023-03-06T08:59:05.862Z,45.20
2023-03-06T09:01:40.481Z,49.07
2023-03-06T09:04:11.028Z,46.70
2023-03-06T09:06:47.337Z,40.73
2023-03-06T09:09:14.589Z,41.53
2023-03-06T09:11:46.016Z,42.60
2023-03-06T09:14:13.609Z,38.33
2023-03-06T09:16:40.899Z,37.67
2023-03-06T09:19:10.452Z,44.73
2023-03-06T09:21:40.239Z,40.47
2023-03-06T09:24:14.104Z,39.50
2023-03-06T09:26:46.165Z,38.97
2023-03-06T09:29:17.521Z,46.87
2023-03-06T09:31:45.864Z,42.17
2023-03-06T09:34:13.420Z,40.53
2023-03-06T09:36:55.969Z,32.73
2023-03-06T09:39:29.174Z,37.77
2023-03-06T09:41:58.441Z,38.33
2023-03-06T09:44:29.170Z,31.43
2023-03-06T09:47:17.490Z,33.67
2023-03-06T09:49:53.542Z,34.60
2023-03-06T09:52:45.988Z,35.13
2023-03-06T09:55:29.015Z,31.53
2023-03-06T09:58:02.351Z,30.97
2023-03-06T10:01:01.364Z,36.90
2023-03-06T10:03:57.199Z,45.43
2023-03-06T10:06:41.774Z,38.90
2023-03-06T10:09:38.359Z,33.57
2023-03-06T10:12:40.836Z,35.63
2023-03-06T10:15:25.464Z,45.33
2023-03-06T10:17:55.973Z,37.87
2023-03-06T10:20:36.717Z,52.77
2023-03-06T10:23:47.379Z,34.50
2023-03-06T10:26:23.011Z,35.50
2023-03-06T10:29:13.455Z,52.23
2023-03-06T10:31:49.663Z,37.07
2023-03-06T10:34:35.496Z,43.90
2023-03-06T10:37:34.086Z,38.00
2023-03-06T10:40:08.421Z,34.13
2023-03-06T10:42:38.069Z,32.80
2023-03-06T10:45:12.414Z,46.87
2023-03-06T10:47:42.848Z,35.27
2023-03-06T10:50:28.344Z,39.83
2023-03-06T10:53:05.100Z,35.10
2023-03-06T10:55:37.031Z,35.97
2023-03-06T10:58:19.586Z,39.80
2023-03-06T11:00:46.962Z,42.37
2023-03-06T11:03:20.959Z,28.93
2023-03-06T11:06:15.396Z,30.77
2023-03-06T11:08:45.127Z,33.43
2023-03-06T11:11:36.547Z,28.47
2023-03-06T11:14:17.904Z,38.30
2023-03-06T11:16:55.183Z,34.37
2023-03-06T11:19:30.220Z,29.93
2023-03-06T11:22:07.367Z,36.43
2023-03-06T11:24:46.070Z,34.67
2023-03-06T11:27:36.011Z,26.93
2023-03-06T11:30:10.388Z,24.93
2023-03-06T11:32:52.465Z,28.10
2023-03-06T11:35:35.300Z,28.13
2023-03-06T11:38:32.208Z,34.97
2023-03-06T11:41:02.479Z,25.90
2023-03-06T11:43:49.341Z,29.53
2023-03-06T11:46:36.968Z,29.47
2023-03-06T11:49:21.824Z,25.50
2023-03-06T11:51:54.584Z,33.50
2023-03-06T11:54:22.292Z,32.67
2023-03-06T11:57:18.191Z,37.87
2023-03-06T12:00:03.717Z,30.70
2023-03-06T12:02:53.879Z,24.43
2023-03-06T12:05:24.226Z,27.77
2023-03-06T12:08:06.884Z,34.97
2023-03-06T12:10:36.887Z,37.60
2023-03-06T12:13:09.192Z,36.97
2023-03-06T12:16:07.289Z,32.50
2023-03-06T12:18:40.426Z,33.37
2023-03-06T12:21:25.127Z,30.67
2023-03-06T12:24:07.445Z,32.17
2023-03-06T12:26:56.177Z,27.13
2023-03-06T12:29:56.930Z,27.20
2023-03-06T12:32:57.415Z,30.00
2023-03-06T12:35:35.696Z,36.10
2023-03-06T12:38:41.020Z,34.20
2023-03-06T12:41:46.557Z,30.67
2023-03-06T12:44:21.546Z,32.83
2023-03-06T12:47:10.510Z,29.43
2023-03-06T12:49:44.015Z,27.83
2023-03-06T12:52:29.585Z,27.80
2023-03-06T12:55:09.891Z,28.40
2023-03-06T12:57:37.055Z,26.47
2023-03-06T13:00:06.893Z,24.60
2023-03-06T13:02:50.805Z,23.57
2023-03-06T13:05:23.907Z,26.17
2023-03-06T13:08:30.816Z,24.00
2023-03-06T13:11:18.576Z,39.93
2023-03-06T13:13:53.538Z,28.13
2023-03-06T13:16:35.244Z,26.60
2023-03-06T13:19:29.133Z,26.87
2023-03-06T13:21:58.331Z,28.20
2023-03-06T13:24:28.513Z,24.83
2023-03-06T13:26:55.609Z,30.30
2023-03-06T13:29:38.212Z,26.30
2023-03-06T13:32:33.370Z,25.83
2023-03-06T13:35:01.054Z,26.10
2023-03-06T13:37:34.390Z,27.47
2023-03-06T13:40:10.129Z,28.30
2023-03-06T13:42:42.392Z,28.53
2023-03-06T13:45:19.493Z,37.30
2023-03-06T13:50:49.094Z,40.07
2023-03-06T13:53:33.352Z,29.13
2023-03-06T13:56:47.299Z,29.10
2023-03-06T13:59:32.016Z,32.87
2023-03-06T14:02:24.359Z,28.17
2023-03-06T14:05:10.574Z,28.43
2023-03-06T14:07:46.708Z,33.23
2023-03-06T14:10:13.769Z,33.93
2023-03-06T14:13:00.729Z,25.70
2023-03-06T14:15:44.446Z,42.83
2023-03-06T14:18:27.284Z,44.27
2023-03-06T14:21:13.330Z,36.63
2023-03-06T14:23:59.958Z,50.63
2023-03-06T14:26:31.806Z,35.57
2023-03-06T14:29:00.976Z,34.73
2023-03-06T14:31:37.666Z,37.80
2023-03-06T14:34:24.047Z,32.33
2023-03-06T14:36:55.856Z,29.10
2023-03-06T14:39:39.400Z,25.30
2023-03-06T14:42:24.143Z,25.67
2023-03-06T14:45:02.335Z,28.97
2023-03-06T14:47:31.926Z,32.17
2023-03-06T14:50:30.125Z,25.30
2023-03-06T14:53:00.559Z,41.00
2023-03-06T14:55:35.116Z,28.67
2023-03-06T14:58:11.733Z,34.30
2023-03-06T15:00:46.793Z,29.53
2023-03-06T15:03:20.512Z,34.13
2023-03-06T15:05:51.286Z,24.60
2023-03-06T15:08:32.546Z,26.53
2023-03-06T15:11:06.544Z,27.53
2023-03-06T15:13:38.524Z,26.73
2023-03-06T15:16:22.928Z,26.90
2023-03-06T15:19:02.504Z,26.67
2023-03-06T15:21:41.813Z,25.57
2023-03-06T15:24:35.870Z,26.60
2023-03-06T15:27:18.803Z,26.70
2023-03-06T15:29:48.215Z,25.30
2023-03-06T15:32:35.700Z,28.40
2023-03-06T15:35:51.291Z,30.20
2023-03-06T15:38:24.302Z,27.77
2023-03-06T15:40:56.942Z,27.80
2023-03-06T15:43:38.096Z,26.00
2023-03-06T15:46:08.201Z,26.10
2023-03-06T15:48:35.565Z,28.53
2023-03-06T15:51:10.989Z,27.10
2023-03-06T15:53:40.699Z,26.57
2023-03-06T15:56:11.889Z,34.23
2023-03-06T15:58:44.464Z,31.60
2023-03-06T16:01:17.418Z,33.37
2023-03-06T16:03:45.382Z,31.17
2023-03-06T16:06:17.771Z,26.77
2023-03-06T16:08:45.125Z,25.97
2023-03-06T16:11:32.494Z,24.70
2023-03-06T16:14:04.825Z,24.50
2023-03-06T16:16:37.872Z,21.80
2023-03-06T16:19:26.073Z,25.83
2023-03-06T16:21:59.447Z,22.77
2023-03-06T16:24:29.158Z,25.43
2023-03-06T16:27:00.594Z,19.37
2023-03-06T16:29:30.326Z,20.47
2023-03-06T16:32:01.818Z,25.97
2023-03-06T16:34:29.148Z,26.27
2023-03-06T16:36:58.947Z,19.40
2023-03-06T16:39:26.122Z,19.10
2023-03-06T16:41:55.820Z,17.77
2023-03-06T16:44:25.595Z,15.97
2023-03-06T16:46:52.712Z,19.93
2023-03-06T16:49:22.660Z,21.83
2023-03-06T16:51:56.261Z,34.23
2023-03-06T16:54:26.278Z,19.90
2023-03-06T16:56:53.468Z,18.67
2023-03-06T16:59:20.707Z,21.93
2023-03-06T17:01:50.183Z,20.10
2023-03-06T17:04:19.845Z,22.37
2023-03-06T17:06:47.037Z,17.17
2023-03-06T17:09:18.876Z,18.67
2023-03-06T17:11:46.974Z,19.63
2023-03-06T17:14:18.661Z,20.83
2023-03-06T17:16:46.505Z,20.67
2023-03-06T17:19:15.932Z,20.33
2023-03-06T17:21:43.904Z,19.93
2023-03-06T17:24:13.273Z,20.13
2023-03-06T17:26:44.325Z,22.57
2023-03-06T17:29:12.175Z,21.87
2023-03-06T17:31:44.712Z,24.30
2023-03-06T17:34:11.836Z,18.97
2023-03-06T17:36:41.249Z,22.83
2023-03-06T17:39:08.746Z,22.40
2023-03-06T17:41:35.963Z,22.53
2023-03-06T17:44:03.146Z,20.90
2023-03-06T17:46:35.296Z,19.87
2023-03-06T17:49:04.562Z,21.17
2023-03-06T17:51:34.554Z,21.80
2023-03-06T17:54:01.732Z,20.87
2023-03-06T17:56:31.174Z,23.97
2023-03-06T17:58:59.699Z,26.57
2023-03-06T18:01:30.620Z,25.50
2023-03-06T18:04:04.206Z,23.00
2023-03-06T18:06:35.050Z,23.93
2023-03-06T18:09:05.660Z,25.40
2023-03-06T18:11:39.864Z,46.53
2023-03-06T18:14:12.340Z,24.30
2023-03-06T18:16:39.494Z,24.30
2023-03-06T18:19:06.695Z,23.37
2023-03-06T18:21:36.328Z,22.00
2023-03-06T18:24:03.808Z,24.53
2023-03-06T18:26:32.231Z,25.27
2023-03-06T18:29:04.494Z,22.53
2023-03-06T18:31:44.677Z,22.93
2023-03-06T18:34:15.180Z,19.70
2023-03-06T18:36:43.552Z,23.67
2023-03-06T18:39:13.384Z,20.27
2023-03-06T18:41:41.374Z,24.10
2023-03-06T18:44:08.672Z,19.80
2023-03-06T18:46:37.971Z,21.07
2023-03-06T18:49:09.937Z,21.17
2023-03-06T18:51:41.762Z,22.90
2023-03-06T18:54:13.551Z,21.20
2023-03-06T18:56:44.592Z,22.07
2023-03-06T18:59:19.072Z,21.70
2023-03-06T19:01:47.360Z,24.53
2023-03-06T19:04:14.919Z,22.17
2023-03-06T19:06:44.524Z,22.20
2023-03-06T19:09:11.705Z,20.30
2023-03-06T19:11:42.774Z,23.50
2023-03-06T19:14:11.283Z,20.70
2023-03-06T19:16:41.126Z,19.60
2023-03-06T19:19:10.733Z,19.13
2023-03-06T19:21:37.935Z,18.53
2023-03-06T19:24:07.513Z,20.47
2023-03-06T19:26:34.625Z,19.10
2023-03-06T19:29:04.293Z,17.27
2023-03-06T19:31:33.791Z,20.33
2023-03-06T19:34:00.990Z,19.33
2023-03-06T19:36:33.937Z,18.70
2023-03-06T19:39:09.538Z,16.57
2023-03-06T19:41:37.614Z,18.53
2023-03-06T19:44:05.987Z,15.73
2023-03-06T19:46:40.616Z,15.70
2023-03-06T19:49:15.860Z,15.93
2023-03-06T19:51:43.455Z,15.90
2023-03-06T19:54:23.226Z,14.63
2023-03-06T19:56:50.940Z,14.53
2023-03-06T19:59:18.058Z,14.37
2023-03-06T20:01:47.644Z,14.80
2023-03-06T20:04:14.986Z,13.87
2023-03-06T20:06:45.328Z,13.33
2023-03-06T20:09:17.061Z,14.43
2023-03-06T20:11:44.223Z,12.60
2023-03-06T20:14:15.420Z,12.87
2023-03-06T20:16:45.268Z,11.83
2023-03-06T20:19:15.022Z,12.03
2023-03-06T20:21:46.437Z,12.40
2023-03-06T20:24:19.592Z,14.57
2023-03-06T20:26:51.155Z,13.07
2023-03-06T20:29:20.825Z,16.17
2023-03-06T20:31:48.064Z,11.37
2023-03-06T20:34:15.244Z,12.43
2023-03-06T20:36:46.589Z,10.80
2023-03-06T20:39:19.178Z,14.27
2023-03-06T20:41:48.505Z,11.83
2023-03-06T20:44:19.756Z,11.80
2023-03-06T20:46:47.011Z,13.67
2023-03-06T20:49:16.696Z,14.17
2023-03-06T20:51:44.096Z,15.27
2023-03-06T20:54:15.424Z,10.97
2023-03-06T20:56:46.019Z,14.53
2023-03-06T20:59:15.898Z,11.63
2023-03-06T21:01:48.847Z,12.53
2023-03-06T21:04:16.096Z,10.93
2023-03-06T21:06:46.747Z,11.53
2023-03-06T21:09:18.105Z,10.33
2023-03-06T21:11:46.112Z,9.60
2023-03-06T21:14:16.021Z,10.90
2023-03-06T21:16:44.593Z,10.43
2023-03-06T21:19:11.996Z,10.37
2023-03-06T21:21:39.150Z,8.27
2023-03-06T21:24:06.508Z,9.60
2023-03-06T21:26:36.365Z,8.17
2023-03-06T21:29:08.077Z,8.10
2023-03-06T21:31:35.362Z,10.53
2023-03-06T21:34:04.819Z,9.60
2023-03-06T21:36:32.754Z,6.97
2023-03-06T21:39:00.122Z,7.03
2023-03-06T21:41:30.771Z,9.27
2023-03-06T21:44:02.784Z,8.70
2023-03-06T21:46:33.393Z,7.47
2023-03-06T21:49:07.995Z,6.97
2023-03-06T21:51:39.434Z,8.30
2023-03-06T21:54:09.746Z,6.87
2023-03-06T21:56:36.870Z,6.43
2023-03-06T21:59:08.557Z,9.47
2023-03-06T22:01:42.597Z,6.87
2023-03-06T22:04:11.846Z,6.17
2023-03-06T22:06:41.532Z,6.63
2023-03-06T22:09:19.008Z,6.60
2023-03-06T22:11:52.987Z,8.00
2023-03-06T22:14:22.616Z,7.33
2023-03-06T22:16:53.529Z,7.20
2023-03-06T22:19:22.998Z,11.27
2023-03-06T22:21:50.149Z,8.13
2023-03-06T22:24:17.250Z,9.47
2023-03-06T22:26:46.585Z,9.50
2023-03-06T22:29:13.753Z,8.43
2023-03-06T22:31:45.570Z,5.20
2023-03-06T22:34:12.785Z,6.50
2023-03-06T22:36:42.318Z,8.33
2023-03-06T22:39:12.445Z,6.40
2023-03-06T22:41:42.035Z,6.50
2023-03-06T22:44:21.483Z,8.33
2023-03-06T22:46:51.762Z,6.87
2023-03-06T22:49:19.085Z,5.97
2023-03-06T22:51:46.223Z,4.83
2023-03-06T22:54:18.010Z,6.80
2023-03-06T22:56:47.167Z,5.73
2023-03-06T22:59:16.859Z,8.37
2023-03-06T23:01:49.036Z,7.70
2023-03-06T23:04:18.307Z,6.47
2023-03-06T23:06:48.207Z,5.87
2023-03-06T23:09:20.737Z,7.77
2023-03-06T23:11:49.031Z,5.87
2023-03-06T23:14:19.712Z,5.83
2023-03-06T23:16:51.605Z,7.27
2023-03-06T23:19:18.760Z,7.23
2023-03-06T23:21:47.898Z,5.43
2023-03-06T23:24:18.571Z,5.93
2023-03-06T23:26:45.701Z,5.93
2023-03-06T23:29:12.941Z,3.87
2023-03-06T23:31:40.010Z,5.30
2023-03-06T23:34:11.720Z,4.00
2023-03-06T23:36:41.658Z,4.93
2023-03-06T23:39:11.541Z,5.17
2023-03-06T23:41:38.615Z,6.27
2023-03-06T23:44:05.833Z,5.53
2023-03-06T23:46:37.687Z,6.80
2023-03-06T23:49:07.983Z,5.17
2023-03-06T23:51:37.429Z,5.13
2023-03-06T23:54:04.672Z,6.00
2023-03-06T23:56:36.370Z,4.63
2023-03-06T23:59:06.032Z,5.77
